Time;durP1;ratioP1;P1;durP2;ratioP2;P2;SDS_P1;SDS_P2;PMS_P1;PMS_P2;Temp;Humidity;BMP_temperature;BMP_pressure;BME280_temperature;BME280_humidity;BME280_pressure;Samples;Min_cycle;Max_cycle;Signal;HPM_P1;HPM_P2
2021/11/03 00:00:27;;;;;;;19.90;13.82;;;;;;;;;;4994662;28;20162;-49
2021/11/03 00:02:53;;;;;;;22.47;13.10;;;;;;;;;;4994622;28;20169;-49
2021/11/03 00:05:19;;;;;;;19.97;13.57;;;;;;;;;;4994318;28;20810;-49
2021/11/03 00:07:45;;;;;;;22.90;14.25;;;;;;;;;;4994280;28;20424;-48
2021/11/03 00:10:12;;;;;;;25.42;14.57;;;;;;;;;;4994483;28;20169;-49
2021/11/03 00:12:38;;;;;;;29.35;15.90;;;;;;;;;;4994397;28;20176;-48
2021/11/03 00:15:04;;;;;;;22.38;13.25;;;;;;;;;;4994363;28;20172;-49
2021/11/03 00:17:30;;;;;;;23.88;14.32;;;;;;;;;;4994085;28;20173;-50
2021/11/03 00:19:56;;;;;;;25.57;14.67;;;;;;;;;;4994343;28;20259;-49
2021/11/03 00:22:22;;;;;;;28.07;13.97;;;;;;;;;;4994321;28;20424;-49
2021/11/03 00:24:48;;;;;;;25.33;14.50;;;;;;;;;;4994149;28;20499;-49
2021/11/03 00:27:14;;;;;;;25.57;15.77;;;;;;;;;;4994038;28;20413;-49
2021/11/03 00:29:40;;;;;;;28.80;14.93;;;;;;;;;;4993779;28;20904;-47
2021/11/03 00:32:07;;;;;;;23.93;14.50;;;;;;;;;;4994132;28;20404;-50
2021/11/03 00:34:34;;;;;;;26.02;15.70;;;;;;;;;;4994094;28;20404;-49
2021/11/03 00:37:00;;;;;;;25.60;15.13;;;;;;;;;;4993076;28;20636;-49
2021/11/03 00:39:26;;;;;;;23.77;14.10;;;;;;;;;;4993691;28;20200;-49
2021/11/03 00:41:52;;;;;;;28.08;15.90;;;;;;;;;;4993664;28;20511;-50
2021/11/03 00:44:18;;;;;;;27.17;15.07;;;;;;;;;;4993809;28;20247;-49
2021/11/03 00:46:44;;;;;;;25.40;14.88;;;;;;;;;;4993728;28;20248;-49
2021/11/03 00:49:10;;;;;;;29.17;14.90;;;;;;;;;;4993436;28;20688;-50
2021/11/03 00:51:36;;;;;;;25.60;15.67;;;;;;;;;;4993609;28;20892;-50
2021/11/03 00:54:02;;;;;;;30.73;14.13;;;;;;;;;;4993609;28;20494;-48
2021/11/03 00:56:28;;;;;;;21.70;13.63;;;;;;;;;;4993383;28;20408;-50
2021/11/03 00:58:54;;;;;;;24.97;14.50;;;;;;;;;;4993343;28;20428;-47
2021/11/03 01:01:20;;;;;;;26.10;15.47;;;;;;;;;;4993464;28;20766;-50
2021/11/03 01:03:47;;;;;;;19.63;13.75;;;;;;;;;;4993453;28;20408;-50
2021/11/03 01:06:13;;;;;;;21.38;13.57;;;;;;;;;;4993413;28;20188;-49
2021/11/03 01:08:39;;;;;;;25.65;14.52;;;;;;;;;;4993158;28;20650;-50
2021/11/03 01:11:04;;;;;;;24.67;13.20;;;;;;;;;;4993328;28;20161;-50
2021/11/03 01:13:32;;;;;;;21.98;13.63;;;;;;;;;;4993767;28;20483;-48
2021/11/03 01:15:58;;;;;;;22.57;14.17;;;;;;;;;;4993462;28;20701;-49
2021/11/03 01:18:25;;;;;;;19.52;12.93;;;;;;;;;;4992785;28;20424;-50
2021/11/03 01:20:51;;;;;;;24.00;14.18;;;;;;;;;;4993256;28;20173;-49
2021/11/03 01:23:17;;;;;;;23.30;12.70;;;;;;;;;;4993046;28;20232;-49
2021/11/03 01:25:43;;;;;;;21.75;13.35;;;;;;;;;;4993041;28;20451;-50
2021/11/03 01:28:09;;;;;;;24.37;14.47;;;;;;;;;;4992687;28;20189;-49
2021/11/03 01:30:35;;;;;;;29.02;15.43;;;;;;;;;;4993212;28;20404;-50
2021/11/03 01:33:02;;;;;;;23.80;14.25;;;;;;;;;;4992855;28;20544;-50
2021/11/03 01:35:28;;;;;;;19.25;12.85;;;;;;;;;;4993025;28;20173;-50
2021/11/03 01:37:56;;;;;;;23.33;12.75;;;;;;;;;;4992555;28;20599;-49
2021/11/03 01:40:23;;;;;;;18.23;12.45;;;;;;;;;;4992687;28;20192;-50
2021/11/03 01:42:50;;;;;;;18.63;13.20;;;;;;;;;;4992843;28;20172;-50
2021/11/03 01:45:17;;;;;;;21.27;14.45;;;;;;;;;;4992712;28;20668;-48
2021/11/03 01:47:46;;;;;;;21.73;12.95;;;;;;;;;;4992079;28;20409;-51
2021/11/03 01:50:18;;;;;;;22.48;13.75;;;;;;;;;;4992748;28;20232;-49
2021/11/03 01:52:45;;;;;;;21.40;13.90;;;;;;;;;;4992619;28;20176;-51
2021/11/03 01:55:12;;;;;;;20.08;12.95;;;;;;;;;;4992605;28;20778;-50
2021/11/03 01:57:42;;;;;;;23.40;14.20;;;;;;;;;;4992287;28;20545;-48
2021/11/03 02:00:16;;;;;;;22.02;14.05;;;;;;;;;;4992562;28;20197;-49
2021/11/03 02:02:43;;;;;;;21.25;13.15;;;;;;;;;;4991760;28;20605;-47
2021/11/03 02:05:10;;;;;;;22.77;13.68;;;;;;;;;;4991768;28;20200;-50
2021/11/03 02:07:38;;;;;;;21.17;13.23;;;;;;;;;;4992060;28;20172;-49
2021/11/03 02:10:04;;;;;;;23.35;12.95;;;;;;;;;;4992381;28;20211;-49
2021/11/03 02:12:30;;;;;;;25.88;13.55;;;;;;;;;;4992509;28;20165;-51
2021/11/03 02:14:57;;;;;;;17.40;12.47;;;;;;;;;;4992325;28;20176;-50
2021/11/03 02:17:24;;;;;;;20.92;13.05;;;;;;;;;;4992198;28;20436;-48
2021/11/03 02:19:51;;;;;;;20.85;13.20;;;;;;;;;;4992118;28;20208;-48
2021/11/03 02:22:23;;;;;;;19.75;11.90;;;;;;;;;;4992333;28;20649;-49
2021/11/03 02:24:54;;;;;;;17.48;11.27;;;;;;;;;;4992212;28;20575;-49
2021/11/03 02:27:24;;;;;;;17.05;11.32;;;;;;;;;;4992189;28;20177;-48
2021/11/03 02:29:51;;;;;;;19.10;12.75;;;;;;;;;;4992235;28;20165;-47
2021/11/03 02:32:20;;;;;;;18.88;12.45;;;;;;;;;;4992075;28;20201;-47
2021/11/03 02:34:46;;;;;;;16.83;11.52;;;;;;;;;;4992252;28;20187;-50
2021/11/03 02:37:30;;;;;;;20.15;11.88;;;;;;;;;;4992041;28;20173;-49
2021/11/03 02:40:15;;;;;;;18.65;11.70;;;;;;;;;;4991970;28;20173;-51
2021/11/03 02:42:45;;;;;;;14.75;10.93;;;;;;;;;;4992139;28;20211;-50
2021/11/03 02:45:15;;;;;;;16.88;11.50;;;;;;;;;;4991992;28;20276;-48
2021/11/03 02:47:41;;;;;;;21.90;13.48;;;;;;;;;;4991725;28;20173;-50
2021/11/03 02:50:09;;;;;;;19.75;12.98;;;;;;;;;;4992067;28;20166;-48
2021/11/03 02:52:35;;;;;;;25.65;13.70;;;;;;;;;;4992142;28;20212;-50
2021/11/03 02:55:01;;;;;;;17.60;12.40;;;;;;;;;;4992141;28;20177;-48
2021/11/03 02:57:27;;;;;;;19.08;12.52;;;;;;;;;;4991563;28;20211;-49
2021/11/03 02:59:53;;;;;;;19.00;11.90;;;;;;;;;;4993560;28;20204;-49
2021/11/03 03:02:19;;;;;;;17.13;12.20;;;;;;;;;;4995649;28;20416;-50
2021/11/03 03:04:48;;;;;;;20.63;11.97;;;;;;;;;;4995679;28;20459;-49
2021/11/03 03:07:16;;;;;;;23.23;13.65;;;;;;;;;;4995511;28;20411;-48
2021/11/03 03:09:42;;;;;;;21.38;13.15;;;;;;;;;;4996019;28;20184;-50
2021/11/03 03:12:11;;;;;;;21.48;12.50;;;;;;;;;;4995511;28;20382;-50
2021/11/03 03:14:38;;;;;;;23.90;12.77;;;;;;;;;;4995571;28;20603;-48
2021/11/03 03:17:05;;;;;;;25.83;13.35;;;;;;;;;;4995466;28;20205;-49
2021/11/03 03:19:31;;;;;;;23.83;13.23;;;;;;;;;;4995280;28;20185;-49
2021/11/03 03:21:57;;;;;;;20.75;12.00;;;;;;;;;;4995346;28;20201;-49
2021/11/03 03:24:23;;;;;;;24.17;13.32;;;;;;;;;;4995240;28;20565;-48
2021/11/03 03:26:49;;;;;;;19.73;12.97;;;;;;;;;;4995274;28;20442;-49
2021/11/03 03:29:16;;;;;;;19.90;12.18;;;;;;;;;;4994973;28;20470;-48
2021/11/03 03:31:42;;;;;;;18.90;12.73;;;;;;;;;;4995297;28;20199;-50
2021/11/03 03:34:13;;;;;;;24.20;12.18;;;;;;;;;;4995130;28;20252;-48
2021/11/03 03:36:39;;;;;;;24.10;12.10;;;;;;;;;;4995204;28;20192;-50
2021/11/03 03:39:08;;;;;;;19.27;12.90;;;;;;;;;;4994698;28;20259;-49
2021/11/03 03:41:34;;;;;;;21.27;12.50;;;;;;;;;;4995090;28;20559;-49
2021/11/03 03:44:00;;;;;;;17.70;12.15;;;;;;;;;;4994901;28;20252;-49
2021/11/03 03:46:26;;;;;;;31.10;13.30;;;;;;;;;;4995066;28;20326;-50
2021/11/03 03:48:52;;;;;;;24.10;13.40;;;;;;;;;;4994564;28;20432;-49
2021/11/03 03:51:18;;;;;;;19.38;11.90;;;;;;;;;;4994889;28;20773;-49
2021/11/03 03:53:44;;;;;;;18.40;12.02;;;;;;;;;;4994791;28;20508;-50
2021/11/03 03:56:11;;;;;;;23.38;15.38;;;;;;;;;;4995085;28;20170;-48
2021/11/03 03:58:37;;;;;;;23.92;13.60;;;;;;;;;;4994367;28;20566;-51
2021/11/03 04:01:03;;;;;;;28.37;15.30;;;;;;;;;;4995083;28;20169;-49
2021/11/03 04:03:29;;;;;;;22.13;13.35;;;;;;;;;;4994599;28;20397;-49
2021/11/03 04:05:56;;;;;;;21.83;13.10;;;;;;;;;;4995035;28;20208;-49
2021/11/03 04:08:24;;;;;;;23.02;14.57;;;;;;;;;;4994211;28;20426;-50
2021/11/03 04:10:50;;;;;;;21.00;13.65;;;;;;;;;;4994429;28;20277;-49
2021/11/03 04:13:16;;;;;;;19.98;12.55;;;;;;;;;;4994553;28;20179;-50
2021/11/03 04:15:42;;;;;;;22.65;12.27;;;;;;;;;;4994416;28;20173;-49
2021/11/03 04:18:08;;;;;;;21.80;13.50;;;;;;;;;;4994099;28;20197;-50
2021/11/03 04:20:36;;;;;;;21.17;13.73;;;;;;;;;;4994191;28;20645;-50
2021/11/03 04:23:02;;;;;;;25.17;13.52;;;;;;;;;;4994294;28;20463;-48
2021/11/03 04:25:28;;;;;;;24.33;13.75;;;;;;;;;;4994123;28;20209;-49
2021/11/03 04:27:54;;;;;;;18.83;12.43;;;;;;;;;;4993876;28;20189;-48
2021/11/03 04:30:21;;;;;;;27.23;14.02;;;;;;;;;;4994073;28;20455;-47
2021/11/03 04:35:51;;;;;;;21.45;11.85;;;;;;;;;;4994214;28;20254;-49
2021/11/03 04:38:17;;;;;;;20.10;12.07;;;;;;;;;;4993641;28;20672;-50
2021/11/03 04:40:43;;;;;;;21.27;11.25;;;;;;;;;;4992533;28;20962;-49
2021/11/03 04:43:09;;;;;;;18.93;11.80;;;;;;;;;;4993868;28;20181;-49
2021/11/03 04:45:36;;;;;;;23.90;11.82;;;;;;;;;;4993712;28;20471;-50
2021/11/03 04:48:02;;;;;;;19.80;10.98;;;;;;;;;;4993412;28;20193;-50
2021/11/03 04:50:30;;;;;;;17.90;11.40;;;;;;;;;;4993709;28;20165;-49
2021/11/03 04:52:56;;;;;;;15.20;9.60;;;;;;;;;;4993691;28;20401;-48
2021/11/03 04:55:23;;;;;;;20.33;11.80;;;;;;;;;;4993636;28;20223;-50
2021/11/03 04:57:49;;;;;;;21.42;11.40;;;;;;;;;;4993243;28;20553;-49
2021/11/03 05:00:18;;;;;;;20.93;11.80;;;;;;;;;;4993653;28;20181;-49
2021/11/03 05:02:44;;;;;;;15.68;9.77;;;;;;;;;;4993453;28;20419;-48
2021/11/03 05:05:10;;;;;;;14.52;10.50;;;;;;;;;;4993440;28;20193;-49
2021/11/03 05:07:36;;;;;;;18.63;10.77;;;;;;;;;;4993854;28;20182;-49
2021/11/03 05:10:02;;;;;;;15.20;8.70;;;;;;;;;;4993681;28;20555;-46
2021/11/03 05:12:28;;;;;;;12.82;9.23;;;;;;;;;;4993251;28;20415;-49
2021/11/03 05:14:54;;;;;;;17.13;10.00;;;;;;;;;;4993208;28;20176;-46
2021/11/03 05:17:20;;;;;;;19.40;10.40;;;;;;;;;;4993092;28;20415;-45
2021/11/03 05:19:46;;;;;;;21.52;12.40;;;;;;;;;;4993148;28;20968;-45
2021/11/03 05:22:16;;;;;;;18.00;10.33;;;;;;;;;;4992500;28;20173;-46
2021/11/03 05:24:43;;;;;;;15.85;10.02;;;;;;;;;;4993170;28;20452;-46
2021/11/03 05:27:10;;;;;;;16.67;10.98;;;;;;;;;;4992962;28;20173;-46
2021/11/03 05:29:36;;;;;;;23.08;10.90;;;;;;;;;;4992706;28;20193;-46
2021/11/03 05:32:02;;;;;;;18.43;12.30;;;;;;;;;;4992819;28;20173;-48
2021/11/03 05:34:28;;;;;;;18.25;11.75;;;;;;;;;;4993022;28;20404;-49
2021/11/03 05:36:54;;;;;;;17.40;11.67;;;;;;;;;;4993117;28;20194;-46
2021/11/03 05:39:20;;;;;;;18.67;11.37;;;;;;;;;;4992635;28;20862;-46
2021/11/03 05:41:46;;;;;;;16.88;11.73;;;;;;;;;;4992829;28;20431;-46
2021/11/03 05:44:13;;;;;;;20.58;10.50;;;;;;;;;;4992732;28;20274;-45
2021/11/03 05:46:44;;;;;;;18.40;10.70;;;;;;;;;;4992654;28;20169;-46
2021/11/03 05:49:11;;;;;;;20.67;10.50;;;;;;;;;;4992457;28;20564;-46
2021/11/03 05:51:37;;;;;;;18.27;11.67;;;;;;;;;;4992777;28;20555;-49
2021/11/03 05:54:04;;;;;;;17.92;11.65;;;;;;;;;;4992540;28;20479;-46
2021/11/03 05:56:30;;;;;;;21.13;13.30;;;;;;;;;;4992539;28;20199;-46
2021/11/03 05:58:56;;;;;;;18.60;12.18;;;;;;;;;;4992304;28;20684;-46
2021/11/03 06:01:22;;;;;;;19.73;12.03;;;;;;;;;;4992629;28;20192;-46
2021/11/03 06:03:48;;;;;;;20.87;11.33;;;;;;;;;;4991280;28;20426;-46
2021/11/03 06:06:14;;;;;;;14.60;9.60;;;;;;;;;;4992495;28;20424;-47
2021/11/03 06:08:40;;;;;;;18.77;11.70;;;;;;;;;;4992196;28;20424;-46
2021/11/03 06:11:07;;;;;;;16.30;11.40;;;;;;;;;;4992427;28;20172;-46
2021/11/03 06:13:34;;;;;;;17.83;11.80;;;;;;;;;;4992325;28;20998;-46
2021/11/03 06:16:00;;;;;;;20.70;12.30;;;;;;;;;;4992390;28;20200;-46
2021/11/03 06:18:26;;;;;;;21.70;12.20;;;;;;;;;;4992179;28;20936;-46
2021/11/03 06:20:52;;;;;;;26.50;11.97;;;;;;;;;;4992359;28;20173;-46
2021/11/03 06:23:17;;;;;;;21.37;11.57;;;;;;;;;;4992366;28;20454;-46
2021/11/03 06:25:43;;;;;;;17.10;10.97;;;;;;;;;;4992090;28;20463;-47
2021/11/03 06:28:10;;;;;;;20.65;11.90;;;;;;;;;;4991920;28;20424;-46
2021/11/03 06:30:37;;;;;;;18.70;12.02;;;;;;;;;;4992288;28;20256;-46
2021/11/03 06:33:03;;;;;;;19.10;11.40;;;;;;;;;;4992589;28;20165;-45
2021/11/03 06:35:30;;;;;;;20.55;12.23;;;;;;;;;;4996236;28;20661;-46
2021/11/03 06:37:56;;;;;;;17.67;11.20;;;;;;;;;;4995996;28;20189;-47
2021/11/03 06:40:24;;;;;;;21.77;11.40;;;;;;;;;;4995842;28;20189;-49
2021/11/03 06:42:50;;;;;;;18.80;10.40;;;;;;;;;;4996121;28;20466;-49
2021/11/03 06:45:18;;;;;;;20.23;11.10;;;;;;;;;;4995891;28;20230;-46
2021/11/03 06:47:44;;;;;;;18.33;10.60;;;;;;;;;;4995869;28;20183;-46
2021/11/03 06:50:13;;;;;;;21.88;11.30;;;;;;;;;;4995986;28;20231;-45
2021/11/03 06:52:39;;;;;;;18.73;10.68;;;;;;;;;;4996503;28;20233;-48
2021/11/03 06:55:06;;;;;;;17.75;10.80;;;;;;;;;;4994487;28;20169;-49
2021/11/03 06:57:32;;;;;;;18.65;10.68;;;;;;;;;;4994229;28;20264;-50
2021/11/03 06:59:59;;;;;;;19.50;11.70;;;;;;;;;;4995968;28;20252;-51
2021/11/03 07:02:26;;;;;;;19.08;11.10;;;;;;;;;;4995664;28;20411;-48
2021/11/03 07:04:52;;;;;;;24.47;11.73;;;;;;;;;;4995793;28;20192;-50
2021/11/03 07:07:18;;;;;;;19.57;11.90;;;;;;;;;;4995427;28;20400;-48
2021/11/03 07:09:44;;;;;;;17.97;11.30;;;;;;;;;;4995326;28;20452;-50
2021/11/03 07:12:10;;;;;;;20.43;11.30;;;;;;;;;;4995635;28;20411;-51
2021/11/03 07:14:36;;;;;;;16.55;9.75;;;;;;;;;;4995627;28;20412;-51
2021/11/03 07:17:02;;;;;;;17.23;10.67;;;;;;;;;;4995527;28;20173;-50
2021/11/03 07:19:27;;;;;;;18.50;10.73;;;;;;;;;;4995304;28;20459;-50
2021/11/03 07:21:53;;;;;;;19.77;11.07;;;;;;;;;;4995474;28;20891;-50
2021/11/03 07:24:20;;;;;;;16.97;10.67;;;;;;;;;;4995208;28;20463;-50
2021/11/03 07:26:46;;;;;;;13.57;10.13;;;;;;;;;;4995170;28;20462;-50
2021/11/03 07:29:12;;;;;;;19.37;11.53;;;;;;;;;;4995122;28;20621;-50
2021/11/03 07:31:38;;;;;;;19.33;11.38;;;;;;;;;;4995217;28;20406;-50
2021/11/03 07:34:04;;;;;;;17.17;10.32;;;;;;;;;;4995326;28;20637;-50
2021/11/03 07:36:32;;;;;;;20.97;12.40;;;;;;;;;;4995185;28;20176;-50
2021/11/03 07:38:58;;;;;;;18.15;10.88;;;;;;;;;;4995344;28;20535;-48
2021/11/03 07:41:24;;;;;;;20.07;11.23;;;;;;;;;;4995016;28;20186;-51
2021/11/03 07:43:50;;;;;;;18.57;10.50;;;;;;;;;;4995076;28;20413;-49
2021/11/03 07:46:17;;;;;;;15.23;9.70;;;;;;;;;;4994398;28;20563;-51
2021/11/03 07:48:43;;;;;;;21.50;10.80;;;;;;;;;;4994778;28;20259;-50
2021/11/03 07:51:13;;;;;;;21.40;11.48;;;;;;;;;;4994897;28;20251;-50
2021/11/03 07:53:41;;;;;;;15.95;10.93;;;;;;;;;;4994917;28;20207;-49
2021/11/03 07:56:08;;;;;;;19.55;11.10;;;;;;;;;;4994921;28;20161;-51
2021/11/03 07:58:36;;;;;;;16.17;9.98;;;;;;;;;;4994576;28;20699;-50
2021/11/03 08:01:03;;;;;;;17.05;11.25;;;;;;;;;;4994797;28;20165;-50
2021/11/03 08:03:29;;;;;;;16.25;9.95;;;;;;;;;;4995303;28;20177;-48
2021/11/03 08:05:55;;;;;;;16.23;10.70;;;;;;;;;;4994586;28;20188;-49
2021/11/03 08:08:24;;;;;;;19.48;11.35;;;;;;;;;;4994304;28;20428;-51
2021/11/03 08:10:53;;;;;;;15.23;10.98;;;;;;;;;;4994680;28;20169;-48
2021/11/03 08:13:19;;;;;;;16.87;10.30;;;;;;;;;;4994565;28;20191;-50
2021/11/03 08:15:46;;;;;;;19.38;11.00;;;;;;;;;;4994665;28;20491;-51
2021/11/03 08:18:13;;;;;;;16.80;11.17;;;;;;;;;;4994240;28;20204;-51
2021/11/03 08:20:40;;;;;;;17.90;11.88;;;;;;;;;;4994380;28;20955;-50
2021/11/03 08:23:06;;;;;;;21.93;10.90;;;;;;;;;;4994305;28;20166;-51
2021/11/03 08:25:33;;;;;;;16.03;9.93;;;;;;;;;;4994254;28;20467;-51
2021/11/03 08:27:59;;;;;;;15.07;10.45;;;;;;;;;;4993975;28;20995;-51
2021/11/03 08:30:25;;;;;;;17.47;10.00;;;;;;;;;;4994301;28;20174;-51
2021/11/03 08:32:52;;;;;;;16.80;10.40;;;;;;;;;;4994083;28;20487;-51
2021/11/03 08:35:19;;;;;;;21.67;10.60;;;;;;;;;;4994167;28;20463;-50
2021/11/03 08:37:46;;;;;;;19.60;11.43;;;;;;;;;;4993624;28;20426;-49
2021/11/03 08:40:14;;;;;;;15.77;10.63;;;;;;;;;;4994012;28;20461;-50
2021/11/03 08:42:40;;;;;;;14.73;10.43;;;;;;;;;;4993969;28;20404;-50
2021/11/03 08:45:07;;;;;;;21.23;12.00;;;;;;;;;;4993999;28;20453;-49
2021/11/03 08:47:33;;;;;;;21.50;12.00;;;;;;;;;;5003141;28;20855;-50
2021/11/03 08:49:59;;;;;;;16.60;10.97;;;;;;;;;;5013377;28;20453;-51
2021/11/03 08:52:25;;;;;;;17.10;11.07;;;;;;;;;;5013512;28;20573;-49
2021/11/03 08:54:53;;;;;;;16.53;10.70;;;;;;;;;;5013367;28;20431;-51
2021/11/03 08:57:19;;;;;;;17.03;11.80;;;;;;;;;;5012182;28;20906;-51
2021/11/03 08:59:46;;;;;;;18.23;11.07;;;;;;;;;;5013073;28;20438;-49
2021/11/03 09:02:12;;;;;;;18.63;11.97;;;;;;;;;;5011197;28;20415;-50
2021/11/03 09:04:38;;;;;;;22.47;11.63;;;;;;;;;;5011314;28;20455;-52
2021/11/03 09:07:11;;;;;;;18.60;11.10;;;;;;;;;;5011726;28;20918;-50
2021/11/03 09:09:37;;;;;;;20.00;10.90;;;;;;;;;;5012058;28;20451;-51
2021/11/03 09:12:03;;;;;;;15.67;10.57;;;;;;;;;;5013088;28;20404;-51
2021/11/03 09:14:29;;;;;;;15.90;11.00;;;;;;;;;;5012749;28;20846;-52
2021/11/03 09:16:55;;;;;;;20.63;11.50;;;;;;;;;;5012868;28;20403;-51
2021/11/03 09:19:21;;;;;;;17.57;11.27;;;;;;;;;;5012779;28;20514;-50
2021/11/03 09:21:47;;;;;;;20.70;11.80;;;;;;;;;;5012910;28;20410;-51
2021/11/03 09:24:13;;;;;;;18.20;11.70;;;;;;;;;;5012864;28;20501;-49
2021/11/03 09:26:39;;;;;;;16.53;11.13;;;;;;;;;;5012804;28;20900;-50
2021/11/03 09:29:06;;;;;;;16.13;10.50;;;;;;;;;;5012413;28;20947;-51
2021/11/03 09:31:32;;;;;;;17.10;10.50;;;;;;;;;;5012745;28;20405;-52
2021/11/03 09:33:58;;;;;;;19.93;11.73;;;;;;;;;;5012643;28;20410;-51
2021/11/03 09:36:25;;;;;;;19.70;11.53;;;;;;;;;;5012618;28;20406;-51
2021/11/03 09:38:51;;;;;;;20.03;12.80;;;;;;;;;;5006214;28;20497;-50
2021/11/03 09:41:22;;;;;;;17.00;11.80;;;;;;;;;;5012397;28;20448;-51
2021/11/03 09:43:59;;;;;;;18.97;12.50;;;;;;;;;;5012272;28;20437;-50
2021/11/03 09:46:28;;;;;;;16.07;11.97;;;;;;;;;;5012355;28;20450;-51
2021/11/03 09:48:59;;;;;;;20.83;12.53;;;;;;;;;;5011292;28;20425;-49
2021/11/03 09:51:27;;;;;;;23.17;13.03;;;;;;;;;;5011782;28;20476;-51
2021/11/03 09:53:56;;;;;;;25.40;12.97;;;;;;;;;;5012396;28;20400;-51
2021/11/03 09:56:25;;;;;;;19.60;13.37;;;;;;;;;;5012347;28;20765;-50
2021/11/03 09:58:59;;;;;;;21.20;13.33;;;;;;;;;;5012065;28;20922;-50
2021/11/03 10:01:28;;;;;;;18.17;11.57;;;;;;;;;;5012204;28;20773;-50
2021/11/03 10:04:30;;;;;;;26.73;14.03;;;;;;;;;;5012287;28;20450;-51
2021/11/03 10:07:20;;;;;;;28.50;14.07;;;;;;;;;;4951587;29;20430;-51
2021/11/03 10:09:46;;;;;;;26.00;13.83;;;;;;;;;;5008387;28;20442;-49
2021/11/03 10:12:12;;;;;;;33.10;14.57;;;;;;;;;;5012198;28;20810;-51
2021/11/03 10:14:39;;;;;;;25.17;15.47;;;;;;;;;;5012066;28;20490;-51
2021/11/03 10:17:20;;;;;;;24.00;14.50;;;;;;;;;;5011868;28;20403;-51
2021/11/03 10:19:46;;;;;;;25.27;14.37;;;;;;;;;;5011722;28;20427;-48
2021/11/03 10:22:28;;;;;;;21.10;14.50;;;;;;;;;;5011787;28;20819;-49
2021/11/03 10:25:13;;;;;;;23.90;14.63;;;;;;;;;;5011633;28;20962;-51
2021/11/03 10:27:44;;;;;;;25.37;13.90;;;;;;;;;;5010799;28;20588;-50
2021/11/03 10:30:27;;;;;;;27.93;14.67;;;;;;;;;;5011790;28;20406;-51
2021/11/03 10:32:54;;;;;;;16.60;11.20;;;;;;;;;;5011079;28;20412;-49
2021/11/03 10:35:36;;;;;;;20.70;13.77;;;;;;;;;;5011653;28;20866;-49
2021/11/03 10:38:10;;;;;;;21.10;14.20;;;;;;;;;;5011423;28;20415;-50
2021/11/03 10:40:57;;;;;;;18.43;12.40;;;;;;;;;;5011768;28;20457;-50
2021/11/03 10:43:34;;;;;;;18.40;12.90;;;;;;;;;;5011916;28;20461;-51
2021/11/03 10:46:20;;;;;;;20.33;13.60;;;;;;;;;;5011732;28;20505;-50
2021/11/03 10:48:49;;;;;;;25.00;14.77;;;;;;;;;;5011367;28;20434;-50
2021/11/03 10:51:20;;;;;;;22.30;14.63;;;;;;;;;;5010176;28;20513;-49
2021/11/03 10:53:49;;;;;;;20.70;13.13;;;;;;;;;;5011781;28;20397;-51
2021/11/03 10:56:29;;;;;;;29.50;18.37;;;;;;;;;;5011822;28;20415;-50
2021/11/03 10:58:58;;;;;;;23.40;14.30;;;;;;;;;;5011278;28;20425;-49
2021/11/03 11:01:24;;;;;;;20.80;14.43;;;;;;;;;;5011996;28;20414;-50
2021/11/03 11:03:50;;;;;;;20.20;13.07;;;;;;;;;;5008401;28;20490;-49
2021/11/03 11:06:29;;;;;;;16.70;12.63;;;;;;;;;;5010985;28;20538;-48
2021/11/03 11:08:55;;;;;;;21.77;14.73;;;;;;;;;;5011216;28;20513;-47
2021/11/03 11:11:23;;;;;;;17.00;11.90;;;;;;;;;;5011549;28;20753;-47
2021/11/03 11:14:17;;;;;;;23.90;14.90;;;;;;;;;;5011702;28;20427;-47
2021/11/03 11:17:04;;;;;;;18.07;13.20;;;;;;;;;;5009163;28;20416;-47
2021/11/03 11:19:37;;;;;;;21.07;13.77;;;;;;;;;;5010778;28;20430;-47
2021/11/03 11:22:32;;;;;;;19.23;12.57;;;;;;;;;;5013791;28;20494;-48
2021/11/03 11:25:02;;;;;;;21.87;13.40;;;;;;;;;;5009276;28;20469;-46
2021/11/03 11:27:30;;;;;;;21.50;14.00;;;;;;;;;;5014606;28;20407;-46
2021/11/03 11:30:16;;;;;;;29.37;16.07;;;;;;;;;;5013767;28;20824;-47
2021/11/03 11:33:01;;;;;;;25.33;15.53;;;;;;;;;;5014804;28;20398;-46
2021/11/03 11:35:45;;;;;;;25.20;14.27;;;;;;;;;;5014833;28;20410;-46
2021/11/03 11:38:17;;;;;;;23.40;14.50;;;;;;;;;;5014594;28;20429;-47
2021/11/03 11:41:01;;;;;;;23.13;15.20;;;;;;;;;;5014648;28;20442;-47
2021/11/03 11:43:36;;;;;;;23.60;15.97;;;;;;;;;;5014733;28;20895;-46
2021/11/03 11:46:12;;;;;;;22.20;15.67;;;;;;;;;;5014574;28;20450;-46
2021/11/03 11:48:41;;;;;;;22.67;14.80;;;;;;;;;;5014258;28;20516;-46
2021/11/03 11:51:09;;;;;;;24.13;15.40;;;;;;;;;;5014405;28;20404;-46
2021/11/03 11:53:56;;;;;;;24.07;15.50;;;;;;;;;;5014500;28;20403;-46
2021/11/03 11:56:24;;;;;;;25.47;14.97;;;;;;;;;;5014384;28;20461;-46
2021/11/03 11:58:52;;;;;;;21.27;15.57;;;;;;;;;;5014005;28;20941;-46
2021/11/03 12:01:20;;;;;;;21.07;14.33;;;;;;;;;;5014230;28;20407;-47
2021/11/03 12:03:46;;;;;;;22.57;14.50;;;;;;;;;;5014149;28;20422;-48
2021/11/03 12:06:12;;;;;;;22.17;13.67;;;;;;;;;;5014198;28;20966;-48
2021/11/03 12:08:59;;;;;;;21.33;13.50;;;;;;;;;;5013926;28;20825;-48
2021/11/03 12:11:29;;;;;;;15.17;11.13;;;;;;;;;;5009889;28;20973;-46
2021/11/03 12:14:00;;;;;;;15.37;11.20;;;;;;;;;;5013302;28;20462;-46
2021/11/03 12:16:35;;;;;;;19.40;12.03;;;;;;;;;;5013917;28;20406;-48
2021/11/03 12:19:03;;;;;;;18.80;11.73;;;;;;;;;;5013226;28;20430;-46
2021/11/03 12:21:29;;;;;;;14.60;11.50;;;;;;;;;;5009601;28;20462;-47
2021/11/03 12:24:07;;;;;;;16.13;11.80;;;;;;;;;;5005668;28;20445;-46
2021/11/03 12:26:33;;;;;;;18.60;11.90;;;;;;;;;;5013774;28;20446;-46
2021/11/03 12:29:01;;;;;;;17.60;12.30;;;;;;;;;;5013540;28;20455;-48
2021/11/03 12:31:32;;;;;;;20.37;13.47;;;;;;;;;;5012315;28;20407;-46
2021/11/03 12:34:03;;;;;;;18.70;13.40;;;;;;;;;;5013679;28;20399;-48
2021/11/03 12:36:31;;;;;;;25.77;15.77;;;;;;;;;;5013705;28;20403;-47
2021/11/03 12:38:59;;;;;;;18.60;13.87;;;;;;;;;;5011584;28;20431;-49
2021/11/03 12:41:30;;;;;;;21.07;14.07;;;;;;;;;;5011711;28;20496;-46
2021/11/03 12:43:58;;;;;;;18.07;12.30;;;;;;;;;;5013448;28;20421;-46
2021/11/03 12:46:25;;;;;;;16.93;11.73;;;;;;;;;;5012835;28;20509;-48
2021/11/03 12:48:58;;;;;;;16.30;12.33;;;;;;;;;;5012971;28;20458;-48
2021/11/03 12:51:45;;;;;;;21.10;12.80;;;;;;;;;;5013291;28;20521;-47
2021/11/03 12:54:20;;;;;;;21.60;14.37;;;;;;;;;;5013453;28;20739;-48
2021/11/03 12:56:56;;;;;;;20.27;13.20;;;;;;;;;;5013363;28;20434;-47
2021/11/03 12:59:24;;;;;;;20.60;13.60;;;;;;;;;;5013187;28;20859;-48
2021/11/03 13:01:56;;;;;;;17.90;12.80;;;;;;;;;;5013176;28;20855;-50
2021/11/03 13:04:24;;;;;;;20.40;12.50;;;;;;;;;;5013268;28;20395;-45
2021/11/03 13:07:02;;;;;;;20.40;12.80;;;;;;;;;;5013186;28;20853;-46
2021/11/03 13:09:31;;;;;;;18.57;12.27;;;;;;;;;;5012959;28;20450;-46
2021/11/03 13:11:57;;;;;;;20.33;13.00;;;;;;;;;;5011870;28;20421;-47
2021/11/03 13:14:26;;;;;;;20.53;12.90;;;;;;;;;;5012667;28;20409;-47
2021/11/03 13:16:53;;;;;;;15.07;11.40;;;;;;;;;;5012672;28;20410;-46
2021/11/03 13:19:26;;;;;;;22.07;14.07;;;;;;;;;;5012724;28;20411;-47
2021/11/03 13:21:53;;;;;;;22.43;14.00;;;;;;;;;;5013028;28;20408;-47
2021/11/03 13:24:21;;;;;;;23.70;15.37;;;;;;;;;;5012848;28;20892;-46
2021/11/03 13:26:47;;;;;;;23.10;14.90;;;;;;;;;;5012539;28;20406;-47
2021/11/03 13:29:28;;;;;;;28.60;15.93;;;;;;;;;;5012509;28;21271;-46
2021/11/03 13:32:14;;;;;;;25.17;15.47;;;;;;;;;;5012281;28;20403;-46
2021/11/03 13:34:45;;;;;;;23.80;14.77;;;;;;;;;;5012846;28;20965;-46
2021/11/03 13:37:20;;;;;;;26.10;16.83;;;;;;;;;;5012411;28;20414;-47
2021/11/03 13:39:56;;;;;;;23.30;15.87;;;;;;;;;;5012376;28;20419;-47
2021/11/03 13:42:28;;;;;;;29.83;17.00;;;;;;;;;;5012642;28;20402;-46
2021/11/03 13:45:06;;;;;;;22.83;15.37;;;;;;;;;;5012019;28;20461;-45
2021/11/03 13:47:33;;;;;;;27.43;16.37;;;;;;;;;;5011929;28;20458;-47
2021/11/03 13:50:31;;;;;;;28.03;15.77;;;;;;;;;;5012564;28;20529;-45
2021/11/03 13:53:00;;;;;;;27.90;16.60;;;;;;;;;;5012496;28;20499;-46
2021/11/03 13:55:28;;;;;;;25.30;15.67;;;;;;;;;;5012490;28;20410;-46
2021/11/03 13:57:54;;;;;;;23.57;15.70;;;;;;;;;;5011948;28;20807;-50
2021/11/03 14:00:22;;;;;;;28.93;14.97;;;;;;;;;;5012337;28;20492;-46
2021/11/03 14:02:49;;;;;;;25.53;15.90;;;;;;;;;;5012315;28;20412;-46
2021/11/03 14:05:27;;;;;;;30.47;15.80;;;;;;;;;;5012179;28;20468;-48
2021/11/03 14:07:53;;;;;;;26.17;15.50;;;;;;;;;;5011910;28;20418;-46
2021/11/03 14:10:19;;;;;;;23.57;15.20;;;;;;;;;;5012199;28;20449;-46
2021/11/03 14:12:45;;;;;;;30.40;17.07;;;;;;;;;;5012103;28;20405;-46
2021/11/03 14:15:11;;;;;;;29.80;17.20;;;;;;;;;;5012057;28;20406;-46
2021/11/03 14:17:38;;;;;;;24.43;15.57;;;;;;;;;;5011783;28;20747;-46
2021/11/03 14:20:24;;;;;;;27.27;16.90;;;;;;;;;;5012080;28;20406;-46
2021/11/03 14:22:50;;;;;;;26.00;15.67;;;;;;;;;;5012129;28;20593;-47
2021/11/03 14:25:24;;;;;;;22.57;14.70;;;;;;;;;;5011884;28;21169;-46
2021/11/03 14:27:51;;;;;;;23.27;14.87;;;;;;;;;;5008276;28;20430;-47
2021/11/03 14:30:17;;;;;;;28.63;15.63;;;;;;;;;;5011936;28;20776;-48